Time;durP1;ratioP1;P1;durP2;ratioP2;P2;SDS_P1;SDS_P2;PMS_P1;PMS_P2;Temp;Humidity;BMP_temperature;BMP_pressure;BME280_temperature;BME280_humidity;BME280_pressure;Samples;Min_cycle;Max_cycle;Signal;HPM_P1;HPM_P2
2021/04/08 00:00:41;;;;;;;9.05;5.62;;;;;;;0.36;81.30;99788.78;1713815;82;21255;-73
2021/04/08 00:03:08;;;;;;;7.17;4.83;;;;;;;0.36;81.26;99785.32;1712984;82;21417;-72
2021/04/08 00:05:37;;;;;;;8.85;5.50;;;;;;;0.34;81.05;99801.30;1720733;82;21216;-72
2021/04/08 00:08:06;;;;;;;7.97;5.40;;;;;;;0.34;81.01;99793.94;1719083;82;21233;-72
2021/04/08 00:10:36;;;;;;;7.62;4.78;;;;;;;0.33;80.98;99797.07;1726314;82;21248;-73
2021/04/08 00:13:04;;;;;;;8.98;5.92;;;;;;;0.32;80.95;99805.95;1714481;81;21253;-72
2021/04/08 00:15:33;;;;;;;8.20;5.75;;;;;;;0.29;80.95;99804.24;1719242;82;21219;-72
2021/04/08 00:18:01;;;;;;;8.13;5.12;;;;;;;0.28;80.92;99809.20;1709615;82;21200;-72
2021/04/08 00:20:32;;;;;;;8.13;4.92;;;;;;;0.29;80.90;99812.13;1711721;82;21157;-72
2021/04/08 00:23:00;;;;;;;8.83;5.65;;;;;;;0.27;80.90;99816.80;1711812;81;21243;-72
2021/04/08 00:25:28;;;;;;;8.93;5.30;;;;;;;0.25;80.87;99820.93;1711258;82;21179;-72
2021/04/08 00:27:57;;;;;;;9.83;5.80;;;;;;;0.22;80.93;99819.52;1712501;82;21245;-73
2021/04/08 00:30:25;;;;;;;9.40;5.10;;;;;;;0.20;80.95;99824.19;1717865;82;21200;-72
2021/04/08 00:32:53;;;;;;;9.20;5.92;;;;;;;0.20;80.96;99821.56;1723984;82;21066;-72
2021/04/08 00:35:22;;;;;;;7.83;4.83;;;;;;;0.17;80.88;99829.85;1714793;82;21247;-72
2021/04/08 00:37:54;;;;;;;8.03;5.28;;;;;;;0.16;80.88;99829.53;1714469;82;22217;-75
2021/04/08 00:40:29;;;;;;;9.40;6.20;;;;;;;0.15;80.93;99834.49;1728249;82;21369;-72
2021/04/08 00:42:57;;;;;;;9.83;5.55;;;;;;;0.14;80.91;99836.83;1720354;82;21153;-72
2021/04/08 00:45:25;;;;;;;10.10;6.15;;;;;;;0.15;80.87;99835.00;1720872;82;21216;-73
2021/04/08 00:47:54;;;;;;;9.08;4.83;;;;;;;0.14;80.81;99838.14;1713219;82;21220;-71
2021/04/08 00:50:22;;;;;;;10.68;6.62;;;;;;;0.13;80.67;99843.09;1719861;82;21251;-72
2021/04/08 00:52:57;;;;;;;10.10;4.70;;;;;;;0.12;80.65;99856.42;1721134;81;21384;-71
2021/04/08 00:55:37;;;;;;;9.40;6.28;;;;;;;0.11;80.62;99858.24;1722012;82;21213;-72
2021/04/08 00:58:05;;;;;;;9.05;6.00;;;;;;;0.11;80.70;99862.69;1735302;82;21217;-72
2021/04/08 01:00:36;;;;;;;9.28;6.10;;;;;;;0.10;80.76;99865.00;1713828;82;21201;-71
2021/04/08 01:03:05;;;;;;;10.23;6.75;;;;;;;0.06;80.72;99864.60;1712530;81;22067;-73
2021/04/08 01:05:33;;;;;;;10.55;6.60;;;;;;;0.02;80.71;99867.34;1711254;82;21372;-73
2021/04/08 01:08:01;;;;;;;10.75;7.08;;;;;;;-0.01;80.71;99873.00;1718005;82;21196;-72
2021/04/08 01:10:29;;;;;;;9.70;6.20;;;;;;;-0.07;80.72;99869.88;1723766;82;21257;-71
2021/04/08 01:13:06;;;;;;;10.00;5.85;;;;;;;-0.13;80.72;99871.52;1723181;81;21264;-71
2021/04/08 01:15:35;;;;;;;10.18;7.25;;;;;;;-0.16;80.78;99876.38;1719088;82;21182;-72
2021/04/08 01:18:46;;;;;;;11.33;7.65;;;;;;;-0.19;80.82;99878.09;1722050;82;21316;-72
2021/04/08 01:21:38;;;;;;;10.90;7.10;;;;;;;-0.21;80.86;99881.41;1718321;82;21268;-72
2021/04/08 01:24:38;;;;;;;11.63;7.87;;;;;;;-0.27;80.90;99877.26;1719085;82;21262;-73
2021/04/08 01:27:19;;;;;;;11.22;7.90;;;;;;;-0.26;80.96;99889.90;1713959;82;21199;-73
2021/04/08 01:30:20;;;;;;;12.18;7.37;;;;;;;-0.31;81.01;99891.80;1714667;82;21204;-73
2021/04/08 01:32:53;;;;;;;10.65;6.97;;;;;;;-0.32;81.08;99896.75;1713256;82;21210;-72
2021/04/08 01:35:25;;;;;;;12.37;8.13;;;;;;;-0.33;81.11;99900.39;1717844;82;21170;-72
2021/04/08 01:38:19;;;;;;;11.68;8.13;;;;;;;-0.36;81.18;99903.42;1720178;82;21186;-73
2021/04/08 01:40:47;;;;;;;11.20;7.37;;;;;;;-0.39;81.25;99905.13;1725120;82;21163;-73
2021/04/08 01:43:24;;;;;;;15.05;9.23;;;;;;;-0.40;81.38;99907.43;1697715;82;21644;-71
2021/04/08 01:45:54;;;;;;;10.72;7.42;;;;;;;-0.43;81.44;99909.14;1719107;82;21252;-72
2021/04/08 01:48:22;;;;;;;11.08;7.25;;;;;;;-0.44;81.53;99911.47;1712361;82;22352;-73
2021/04/08 01:50:55;;;;;;;11.22;8.15;;;;;;;-0.46;81.61;99913.51;1709661;82;21256;-73
2021/04/08 01:53:23;;;;;;;12.73;8.03;;;;;;;-0.48;81.69;99919.45;1726086;81;21173;-73
2021/04/08 01:55:54;;;;;;;11.25;7.47;;;;;;;-0.50;81.77;99915.70;1718615;82;21165;-73
2021/04/08 01:58:22;;;;;;;13.50;8.60;;;;;;;-0.51;81.82;99920.65;1725816;82;21449;-73
2021/04/08 02:00:52;;;;;;;13.48;7.97;;;;;;;-0.51;81.85;99918.03;1724205;82;21232;-72
2021/04/08 02:03:20;;;;;;;13.78;8.33;;;;;;;-0.49;81.89;99928.34;1732566;82;21209;-72
2021/04/08 02:05:49;;;;;;;13.18;9.20;;;;;;;-0.52;81.92;99930.05;1716350;82;21236;-74
2021/04/08 02:08:18;;;;;;;14.20;9.88;;;;;;;-0.51;81.99;99936.90;1719117;82;21197;-72
2021/04/08 02:10:47;;;;;;;13.08;8.58;;;;;;;-0.53;82.04;99941.52;1721044;82;21200;-71
2021/04/08 02:13:16;;;;;;;13.38;8.48;;;;;;;-0.52;82.19;99952.34;1716548;82;21125;-71
2021/04/08 02:15:46;;;;;;;12.23;9.15;;;;;;;-0.53;82.32;99950.70;1717522;82;21280;-72
2021/04/08 02:18:16;;;;;;;13.58;9.63;;;;;;;-0.53;82.40;99953.33;1715106;82;21192;-73
2021/04/08 02:20:49;;;;;;;13.80;10.00;;;;;;;-0.53;82.46;99958.58;1711900;82;21320;-72
2021/04/08 02:23:23;;;;;;;13.43;8.65;;;;;;;-0.54;82.56;99962.21;1720133;82;21375;-72
2021/04/08 02:25:53;;;;;;;12.65;8.15;;;;;;;-0.55;82.62;99963.23;1720956;81;21324;-72
2021/04/08 02:28:21;;;;;;;12.23;8.53;;;;;;;-0.58;82.67;99972.80;1707528;82;21208;-72
2021/04/08 02:30:50;;;;;;;13.78;9.10;;;;;;;-0.61;82.68;99979.76;1711796;82;21288;-72
2021/04/08 02:33:23;;;;;;;12.73;9.08;;;;;;;-0.64;82.71;99977.02;1701548;82;21676;-72
2021/04/08 02:35:51;;;;;;;12.13;8.73;;;;;;;-0.66;82.74;99982.15;1720087;82;21390;-72
2021/04/08 02:38:21;;;;;;;14.93;10.08;;;;;;;-0.69;82.73;99989.09;1719008;82;21204;-73
2021/04/08 02:40:50;;;;;;;16.12;9.85;;;;;;;-0.71;82.75;99992.73;1680817;84;21455;-72
2021/04/08 02:43:18;;;;;;;14.63;10.13;;;;;;;-0.71;82.78;99990.11;1674503;84;21211;-72
2021/04/08 02:45:47;;;;;;;15.25;10.70;;;;;;;-0.72;82.81;100000.81;1676052;84;21203;-73
2021/04/08 02:48:17;;;;;;;14.18;8.88;;;;;;;-0.71;82.86;99995.36;1673718;84;21672;-72
2021/04/08 02:50:50;;;;;;;15.53;10.28;;;;;;;-0.70;82.89;99997.47;1679917;84;21181;-72
2021/04/08 02:53:36;;;;;;;15.20;11.28;;;;;;;-0.69;82.97;100000.90;1684992;84;21176;-72
2021/04/08 02:56:24;;;;;;;14.38;9.98;;;;;;;-0.67;83.01;100002.33;1677702;84;21693;-72
2021/04/08 02:58:55;;;;;;;13.60;9.48;;;;;;;-0.65;82.97;100007.39;1686781;84;21145;-70
2021/04/08 03:01:26;;;;;;;13.98;9.68;;;;;;;-0.66;82.91;100010.48;1683847;84;22285;-70
2021/04/08 03:03:57;;;;;;;15.35;10.03;;;;;;;-0.66;82.91;100017.05;1680732;84;21736;-70
2021/04/08 03:06:25;;;;;;;19.90;11.38;;;;;;;-0.68;82.89;100017.77;1674511;83;21549;-70
2021/04/08 03:08:56;;;;;;;16.23;10.15;;;;;;;-0.71;82.84;100023.40;1677151;84;21271;-70
2021/04/08 03:11:29;;;;;;;12.13;8.75;;;;;;;-0.74;82.82;100024.59;1671809;85;21069;-70
2021/04/08 03:14:06;;;;;;;16.97;11.45;;;;;;;-0.76;82.81;100031.03;1671813;84;22452;-71
2021/04/08 03:16:43;;;;;;;13.85;9.93;;;;;;;-0.76;82.81;100039.73;1682967;84;21082;-70
2021/04/08 03:19:15;;;;;;;16.27;10.93;;;;;;;-0.79;82.79;100037.50;1688293;84;21224;-70
2021/04/08 03:21:43;;;;;;;14.30;9.68;;;;;;;-0.82;82.79;100039.20;1685134;84;23232;-70
2021/04/08 03:24:11;;;;;;;17.75;11.20;;;;;;;-0.83;82.77;100045.93;1709821;82;21233;-72
2021/04/08 03:26:40;;;;;;;14.68;9.10;;;;;;;-0.84;82.76;100048.26;1645046;85;21624;-69
2021/04/08 03:29:09;;;;;;;17.17;11.88;;;;;;;-0.85;82.78;100050.58;1688157;84;21707;-71
2021/04/08 03:31:43;;;;;;;15.90;10.38;;;;;;;-0.85;82.82;100059.76;1693977;84;21196;-71
2021/04/08 03:34:11;;;;;;;16.77;11.60;;;;;;;-0.82;82.86;100058.86;1667547;84;21102;-71
2021/04/08 03:36:39;;;;;;;14.87;10.10;;;;;;;-0.80;82.84;100061.28;1680326;84;21612;-70
2021/04/08 03:39:08;;;;;;;17.12;11.35;;;;;;;-0.79;82.72;100063.72;1675597;84;21450;-69
2021/04/08 03:41:40;;;;;;;19.20;10.82;;;;;;;-0.79;82.66;100063.72;1685171;84;21230;-70
2021/04/08 03:44:11;;;;;;;18.73;11.95;;;;;;;-0.76;82.60;100065.13;1683433;84;21181;-70
2021/04/08 03:46:43;;;;;;;21.15;12.60;;;;;;;-0.75;82.52;100067.56;1675663;84;21141;-70
2021/04/08 03:49:15;;;;;;;18.75;12.45;;;;;;;-0.72;82.56;100075.05;1682869;84;21081;-70
2021/04/08 03:51:44;;;;;;;17.37;11.25;;;;;;;-0.68;82.57;100082.52;1679404;84;22207;-70
2021/04/08 03:54:13;;;;;;;18.67;11.95;;;;;;;-0.64;82.51;100088.99;1661449;84;21093;-70
2021/04/08 03:56:44;;;;;;;18.07;10.32;;;;;;;-0.60;82.44;100088.91;1680641;83;21503;-70
2021/04/08 03:59:12;;;;;;;18.00;11.03;;;;;;;-0.57;82.43;100088.52;1679757;84;21537;-69
2021/04/08 04:01:42;;;;;;;18.02;12.37;;;;;;;-0.52;82.38;100091.37;1617782;85;21089;-70
2021/04/08 04:04:10;;;;;;;16.97;11.03;;;;;;;-0.51;82.14;100091.67;1679734;84;21290;-69
2021/04/08 04:06:41;;;;;;;17.52;10.75;;;;;;;-0.46;82.00;100099.78;1723487;81;21224;-70
2021/04/08 04:09:13;;;;;;;19.70;13.05;;;;;;;-0.45;81.76;100098.77;1716540;82;21093;-69
2021/04/08 04:11:48;;;;;;;16.23;10.82;;;;;;;-0.41;81.72;100101.80;1707287;82;21252;-69
2021/04/08 04:14:22;;;;;;;20.35;12.73;;;;;;;-0.40;81.52;100105.53;1710092;82;21415;-70
2021/04/08 04:16:52;;;;;;;14.00;9.70;;;;;;;-0.37;81.43;100103.83;1717137;81;22718;-69
2021/04/08 04:19:25;;;;;;;16.55;10.95;;;;;;;-0.36;81.21;100112.50;1715185;82;21093;-72
2021/04/08 04:21:53;;;;;;;19.05;12.50;;;;;;;-0.35;80.97;100112.83;1708732;82;21230;-72
2021/04/08 04:24:21;;;;;;;15.25;10.60;;;;;;;-0.32;80.89;100111.93;1722681;82;21145;-71
2021/04/08 04:26:49;;;;;;;16.67;11.60;;;;;;;-0.28;80.60;100120.22;1711130;82;21221;-72
2021/04/08 04:29:17;;;;;;;15.88;9.98;;;;;;;-0.28;80.37;100118.40;1723704;82;21208;-73
2021/04/08 04:31:45;;;;;;;14.15;10.63;;;;;;;-0.24;80.13;100124.06;1730080;82;21526;-74
2021/04/08 04:34:13;;;;;;;16.10;10.25;;;;;;;-0.19;80.06;100123.48;1711186;82;21078;-72
2021/04/08 04:36:41;;;;;;;16.15;9.23;;;;;;;-0.16;79.74;100127.84;1705725;84;21174;-72
2021/04/08 04:39:09;;;;;;;16.45;10.15;;;;;;;-0.12;79.31;100128.25;1714113;82;21640;-72
2021/04/08 04:41:38;;;;;;;15.08;9.90;;;;;;;-0.07;78.93;100127.95;1724671;82;21213;-71
2021/04/08 04:44:06;;;;;;;14.70;9.80;;;;;;;-0.03;78.72;100129.19;1723263;81;21734;-71
2021/04/08 04:46:36;;;;;;;15.28;9.28;;;;;;;0.02;78.38;100139.09;1717951;82;21316;-72
2021/04/08 04:49:03;;;;;;;18.07;12.65;;;;;;;0.07;77.85;100133.27;1726398;81;21494;-73
2021/04/08 04:51:32;;;;;;;14.85;10.65;;;;;;;0.13;77.91;100138.53;1712136;82;22429;-70
2021/04/08 04:54:00;;;;;;;14.95;10.48;;;;;;;0.19;77.76;100139.02;1663990;85;21381;-71
2021/04/08 04:56:30;;;;;;;16.73;10.45;;;;;;;0.27;77.45;100145.12;1668462;84;21137;-72
2021/04/08 04:58:58;;;;;;;15.48;10.20;;;;;;;0.35;77.13;100153.60;1679660;83;21204;-72
2021/04/08 05:01:28;;;;;;;16.25;10.70;;;;;;;0.43;77.03;100151.31;1686874;84;21216;-72
2021/04/08 05:03:57;;;;;;;14.63;9.58;;;;;;;0.51;76.70;100157.67;1669750;84;21711;-70
2021/04/08 05:06:25;;;;;;;15.93;11.97;;;;;;;0.57;76.08;100159.50;1686275;84;21399;-72
2021/04/08 05:08:55;;;;;;;14.07;9.70;;;;;;;0.63;76.01;100167.09;1683047;84;22423;-71
2021/04/08 05:11:23;;;;;;;17.87;12.00;;;;;;;0.70;75.89;100158.70;1682907;84;21114;-69
2021/04/08 05:13:51;;;;;;;14.87;11.03;;;;;;;0.78;75.99;100157.17;1677671;84;21165;-72
2021/04/08 05:16:20;;;;;;;15.95;9.93;;;;;;;0.90;75.75;100164.77;1707993;82;21294;-72
2021/04/08 05:18:48;;;;;;;16.00;11.40;;;;;;;0.98;74.82;100162.42;1712342;81;21398;-72
2021/04/08 05:21:16;;;;;;;16.80;11.43;;;;;;;1.04;74.97;100162.92;1717368;82;21610;-71
2021/04/08 05:23:44;;;;;;;17.48;11.45;;;;;;;1.11;74.87;100159.78;1729676;82;21428;-72
2021/04/08 05:26:13;;;;;;;14.38;9.30;;;;;;;1.20;74.45;100164.84;1720917;82;21596;-71
2021/04/08 05:28:40;;;;;;;13.90;10.63;;;;;;;1.25;74.05;100156.64;1718167;81;21209;-71
2021/04/08 05:31:09;;;;;;;16.27;11.05;;;;;;;1.31;73.55;100165.00;1713110;82;21311;-72
2021/04/08 05:33:37;;;;;;;15.63;9.65;;;;;;;1.37;73.37;100159.43;1714932;82;21641;-72
2021/04/08 05:36:06;;;;;;;16.77;10.65;;;;;;;1.41;72.97;100165.89;1728993;82;21786;-71
2021/04/08 05:38:34;;;;;;;13.85;10.43;;;;;;;1.43;72.91;100165.19;1725387;81;21229;-70
2021/04/08 05:41:02;;;;;;;15.40;10.45;;;;;;;1.49;72.89;100165.69;1714441;82;21109;-69
2021/04/08 05:43:31;;;;;;;14.73;10.48;;;;;;;1.55;72.43;100184.61;1705748;82;21376;-71
2021/04/08 05:45:59;;;;;;;14.98;10.60;;;;;;;1.59;71.90;100179.22;1727952;82;21208;-72
2021/04/08 05:48:27;;;;;;;14.33;10.98;;;;;;;1.64;71.71;100179.91;1711969;81;21161;-71
2021/04/08 05:50:56;;;;;;;16.62;11.65;;;;;;;1.69;71.82;100180.10;1719635;82;21617;-72
2021/04/08 05:53:24;;;;;;;17.17;12.88;;;;;;;1.77;71.88;100177.22;1725739;82;21177;-71
2021/04/08 05:55:52;;;;;;;17.07;12.23;;;;;;;1.90;72.19;100186.09;1719396;82;21312;-71
2021/04/08 05:58:20;;;;;;;18.50;12.20;;;;;;;2.06;71.98;100187.74;1714572;82;21141;-71
2021/04/08 06:00:48;;;;;;;13.62;10.13;;;;;;;2.18;71.77;100188.41;1718733;82;21127;-72
2021/04/08 06:03:16;;;;;;;16.42;10.65;;;;;;;2.24;71.23;100192.84;1710606;82;21160;-72
2021/04/08 06:05:45;;;;;;;15.35;12.05;;;;;;;2.29;70.89;100190.37;1718848;82;21082;-70
2021/04/08 06:08:13;;;;;;;14.30;10.65;;;;;;;2.35;70.60;100205.34;1728401;82;21456;-70
2021/04/08 06:10:43;;;;;;;16.77;11.85;;;;;;;2.39;70.03;100195.98;1720067;82;21121;-71
2021/04/08 06:13:11;;;;;;;15.45;11.38;;;;;;;2.38;69.87;100202.28;1681771;84;21216;-71
2021/04/08 06:15:40;;;;;;;15.55;11.50;;;;;;;2.40;69.81;100210.77;1692870;84;21616;-71
2021/04/08 06:18:08;;;;;;;17.87;12.85;;;;;;;2.41;69.79;100208.45;1689067;84;21248;-71
2021/04/08 06:20:37;;;;;;;17.90;13.35;;;;;;;2.41;69.87;100213.72;1682130;84;21363;-70
2021/04/08 06:23:05;;;;;;;13.88;10.72;;;;;;;2.45;70.11;100218.06;1684065;84;21781;-70
2021/04/08 06:25:34;;;;;;;16.25;11.45;;;;;;;2.49;69.57;100223.20;1681431;84;21086;-70
2021/04/08 06:28:03;;;;;;;16.50;12.00;;;;;;;2.47;69.71;100219.47;1677696;84;21105;-69
2021/04/08 06:30:31;;;;;;;18.37;13.22;;;;;;;2.47;69.73;100218.16;1677880;83;21208;-70
2021/04/08 06:33:00;;;;;;;15.05;10.48;;;;;;;2.53;69.92;100230.98;1678158;84;21173;-70
2021/04/08 06:35:28;;;;;;;15.65;11.22;;;;;;;2.63;69.57;100229.20;1671670;84;21243;-71
2021/04/08 06:37:55;;;;;;;14.70;10.72;;;;;;;2.66;69.13;100235.36;1671642;84;21181;-72
2021/04/08 06:40:23;;;;;;;16.15;11.95;;;;;;;2.69;69.20;100244.17;1683302;84;21248;-72
2021/04/08 06:42:55;;;;;;;16.32;11.22;;;;;;;2.74;69.29;100224.58;1673673;84;21665;-72
2021/04/08 06:45:24;;;;;;;16.25;11.03;;;;;;;2.81;69.17;100231.92;1717645;82;21288;-74
2021/04/08 06:48:19;;;;;;;18.45;12.70;;;;;;;2.91;68.70;100234.09;1728598;82;21217;-73
2021/04/08 06:50:52;;;;;;;15.53;12.05;;;;;;;2.94;68.46;100241.06;1715794;81;21227;-72
2021/04/08 06:53:20;;;;;;;14.25;11.57;;;;;;;3.00;68.33;100236.25;1716352;82;21629;-73
2021/04/08 06:55:48;;;;;;;17.12;11.73;;;;;;;3.09;68.82;100238.09;1711129;82;21706;-75
2021/04/08 06:58:16;;;;;;;14.60;11.40;;;;;;;3.24;68.37;100243.06;1714605;82;21454;-75
2021/04/08 07:00:46;;;;;;;16.52;12.85;;;;;;;3.31;68.55;100246.45;1713142;81;21280;-73
2021/04/08 07:03:14;;;;;;;16.73;12.65;;;;;;;3.44;68.27;100245.01;1716539;82;21832;-74
2021/04/08 07:05:42;;;;;;;14.95;11.83;;;;;;;3.59;68.36;100249.16;1714437;82;21264;-74
2021/04/08 07:08:10;;;;;;;16.45;11.93;;;;;;;3.73;68.10;100247.98;1688042;82;21626;-74
2021/04/08 07:10:41;;;;;;;15.72;12.43;;;;;;;3.83;67.21;100251.44;1714201;82;21185;-73
2021/04/08 07:13:08;;;;;;;15.90;11.75;;;;;;;3.91;67.07;100265.14;1717816;81;21200;-73
2021/04/08 07:15:36;;;;;;;15.48;11.50;;;;;;;3.95;66.53;100261.06;1694400;81;21148;-73
2021/04/08 07:18:05;;;;;;;15.45;12.15;;;;;;;4.00;66.14;100257.23;1678069;83;21659;-75
2021/04/08 07:20:34;;;;;;;18.60;13.72;;;;;;;4.08;65.54;100265.88;1682115;83;21252;-72
2021/04/08 07:23:10;;;;;;;14.00;11.63;;;;;;;4.12;65.39;100268.40;1671526;83;21413;-74
2021/04/08 07:26:06;;;;;;;14.87;11.55;;;;;;;4.20;65.37;100266.24;1669976;84;21319;-73
2021/04/08 07:28:42;;;;;;;15.33;12.63;;;;;;;4.39;64.89;100258.30;1753669;79;22775;-74
2021/04/08 07:31:30;;;;;;;14.58;11.63;;;;;;;4.42;64.86;100271.88;1737259;80;21184;-74
2021/04/08 07:33:59;;;;;;;14.87;11.55;;;;;;;4.55;64.62;100276.19;1747772;81;21787;-73
2021/04/08 07:36:35;;;;;;;15.30;12.63;;;;;;;4.58;63.88;100281.03;1750370;80;21195;-73
2021/04/08 07:39:07;;;;;;;14.55;12.05;;;;;;;4.55;63.91;100287.30;1756435;81;21251;-74
2021/04/08 07:41:36;;;;;;;17.23;14.13;;;;;;;4.50;63.92;100295.88;1749097;81;27800;-71
2021/04/08 07:44:07;;;;;;;14.47;11.38;;;;;;;4.51;64.38;100289.58;1749799;81;21231;-73
2021/04/08 07:46:44;;;;;;;15.78;13.28;;;;;;;4.62;64.53;100296.75;1753225;81;22289;-74
2021/04/08 07:49:31;;;;;;;13.40;10.88;;;;;;;4.65;63.86;100297.63;1730794;81;21136;-74
2021/04/08 07:52:18;;;;;;;14.83;12.58;;;;;;;4.70;63.75;100303.06;1728431;81;21878;-73
2021/04/08 07:55:09;;;;;;;14.50;11.33;;;;;;;4.66;63.25;100307.16;1736145;81;21199;-73
2021/04/08 07:58:03;;;;;;;15.68;13.03;;;;;;;4.69;63.43;100304.59;1734705;82;21195;-73
2021/04/08 08:00:38;;;;;;;13.85;12.15;;;;;;;4.79;63.01;100303.53;1731530;81;21451;-73
2021/04/08 08:03:26;;;;;;;14.53;12.40;;;;;;;4.72;62.10;100308.11;1727455;81;21230;-73
2021/04/08 08:05:59;;;;;;;14.00;11.43;;;;;;;4.62;62.95;100311.81;1732809;81;21191;-71
2021/04/08 08:08:44;;;;;;;15.15;11.53;;;;;;;4.66;62.77;100319.59;1737910;81;21674;-73
2021/04/08 08:11:15;;;;;;;15.30;12.47;;;;;;;4.74;62.71;100331.69;1717276;81;21167;-74
2021/04/08 08:13:54;;;;;;;13.98;11.78;;;;;;;4.75;62.23;100320.90;1735499;81;21404;-75
2021/04/08 08:19:20;;;;;;;17.17;12.80;;;;;;;4.53;62.21;100329.02;1831464;77;21871;-72
2021/04/08 08:21:48;;;;;;;16.07;13.40;;;;;;;4.50;63.00;100334.75;1801182;78;21233;-74
2021/04/08 08:24:17;;;;;;;16.10;12.85;;;;;;;4.54;63.17;100334.59;1802466;78;22215;-73
2021/04/08 08:26:47;;;;;;;15.93;12.98;;;;;;;4.66;63.20;100332.81;1801670;78;21139;-73
2021/04/08 08:29:22;;;;;;;;;;;;;;;4.80;62.72;100328.95;1808903;79;21179;-74
2021/04/08 08:31:59;;;;;;;14.85;11.70;;;;;;;4.97;63.03;100340.23;1806252;77;20271;-73
2021/04/08 08:34:35;;;;;;;14.23;11.50;;;;;;;5.05;61.28;100330.14;1793491;77;21131;-75
2021/04/08 08:37:17;;;;;;;15.77;12.23;;;;;;;5.02;60.52;100333.23;1792422;78;22341;-75
2021/04/08 08:39:48;;;;;;;14.73;11.95;;;;;;;4.98;60.68;100336.05;1731859;80;21192;-74
2021/04/08 08:42:21;;;;;;;13.50;11.68;;;;;;;5.09;60.67;100341.89;1767201;78;21364;-75
2021/04/08 08:44:51;;;;;;;13.72;11.20;;;;;;;5.27;61.12;100337.06;1767179;79;21198;-72
2021/04/08 08:47:29;;;;;;;12.20;10.32;;;;;;;5.49;60.08;100352.40;1762977;79;21623;-71
2021/04/08 08:50:11;;;;;;;13.70;10.55;;;;;;;5.51;58.40;100355.64;1763486;79;21210;-73
2021/04/08 08:52:42;;;;;;;15.32;11.10;;;;;;;5.40;57.75;100336.85;1768688;79;21579;-74
2021/04/08 08:55:12;;;;;;;;;;;;;;;5.36;57.87;100359.53;1773712;79;21392;-73
2021/04/08 08:57:41;;;;;;;10.98;8.70;;;;;;;5.37;58.12;100350.55;1765316;79;20483;-74
2021/04/08 09:00:10;;;;;;;12.65;10.72;;;;;;;5.51;57.98;100341.06;1767816;79;21294;-74
2021/04/08 09:02:40;;;;;;;11.55;9.38;;;;;;;5.57;57.33;100347.58;1768573;81;21765;-75
2021/04/08 09:08:02;;;;;;;13.03;9.93;;;;;;;5.52;57.02;100351.95;1766944;79;22069;-72
2021/04/08 09:10:34;;;;;;;12.93;10.20;;;;;;;5.47;57.24;100367.73;1739283;82;21192;-74
2021/04/08 09:13:04;;;;;;;14.43;10.55;;;;;;;5.54;56.90;100359.96;1734530;81;21177;-74
2021/04/08 09:15:36;;;;;;;12.00;8.98;;;;;;;5.57;56.86;100362.67;1686907;81;21171;-72
2021/04/08 09:18:08;;;;;;;11.08;9.60;;;;;;;5.55;55.85;100364.73;1728196;82;21188;-73
2021/04/08 09:20:37;;;;;;;12.23;8.85;;;;;;;5.54;56.17;100359.16;1723802;82;21164;-73
2021/04/08 09:23:18;;;;;;;11.35;8.95;;;;;;;5.61;55.54;100358.00;1755293;79;21504;-73
2021/04/08 09:25:56;;;;;;;10.15;8.20;;;;;;;5.69;55.25;100362.15;1769207;80;21286;-73
2021/04/08 09:33:50;;;;;;;10.20;8.13;;;;;;;6.18;53.59;100358.78;1820698;77;21090;-69
2021/04/08 09:36:28;;;;;;;10.25;8.10;;;;;;;6.19;52.95;100352.45;1832872;77;23206;-71
2021/04/08 09:39:04;;;;;;;10.90;8.40;;;;;;;6.17;53.04;100357.17;1840202;77;21219;-71
2021/04/08 09:41:56;;;;;;;11.18;8.50;;;;;;;6.10;52.59;100353.84;1823956;76;21068;-69
2021/04/08 09:44:24;;;;;;;10.28;7.78;;;;;;;5.96;52.25;100361.23;1822048;76;21131;-71
2021/04/08 09:46:59;;;;;;;8.73;6.78;;;;;;;5.84;52.74;100355.09;1824406;77;21151;-70
2021/04/08 09:49:44;;;;;;;9.60;7.40;;;;;;;5.81;53.27;100354.22;1820515;76;21378;-71
2021/04/08 09:52:13;;;;;;;9.70;7.30;;;;;;;5.83;52.11;100356.94;1827219;77;21077;-71
2021/04/08 09:54:57;;;;;;;10.32;7.78;;;;;;;5.93;52.57;100357.72;1825604;77;21543;-72
2021/04/08 09:57:39;;;;;;;11.25;8.15;;;;;;;6.11;51.32;100364.73;1828295;77;21167;-70
2021/04/08 10:00:14;;;;;;;12.05;7.03;;;;;;;6.37;50.98;100349.36;1819194;77;21159;-71
2021/04/08 10:03:06;;;;;;;13.18;9.13;;;;;;;6.53;48.33;100352.09;1830916;77;21363;-71
2021/04/08 10:05:39;;;;;;;9.60;6.95;;;;;;;6.50;48.38;100354.41;1825857;78;21147;-70
2021/04/08 10:08:12;;;;;;;8.63;6.40;;;;;;;6.43;48.70;100368.33;1823932;77;28068;-71
2021/04/08 10:10:44;;;;;;;9.28;6.20;;;;;;;6.36;47.68;100363.16;1814582;78;21563;-76
2021/04/08 10:13:27;;;;;;;10.05;6.37;;;;;;;6.27;48.57;100365.87;1822163;78;21041;-70
2021/04/08 10:16:03;;;;;;;8.10;5.70;;;;;;;6.26;47.83;100365.06;1824781;78;21365;-70
2021/04/08 10:18:33;;;;;;;9.20;5.37;;;;;;;6.27;47.70;100365.34;1850976;77;21068;-71
2021/04/08 10:21:04;;;;;;;8.53;5.80;;;;;;;6.31;46.62;100377.62;1819526;78;21504;-68
2021/04/08 10:23:41;;;;;;;7.97;5.90;;;;;;;6.30;46.51;100362.23;1832315;77;21531;-71
2021/04/08 10:26:23;;;;;;;10.53;6.10;;;;;;;6.31;46.72;100361.70;1819208;76;21163;-72
2021/04/08 10:28:57;;;;;;;7.95;5.37;;;;;;;6.37;46.90;100359.97;1807327;77;21612;-71
2021/04/08 10:31:39;;;;;;;7.53;5.20;;;;;;;6.57;46.82;100355.08;1810645;78;21144;-71
2021/04/08 10:34:14;;;;;;;8.30;6.17;;;;;;;6.86;47.01;100366.52;1829780;76;21139;-71
2021/04/08 10:36:48;;;;;;;7.67;5.25;;;;;;;7.03;47.64;100370.02;1824191;76;21167;-71
2021/04/08 10:39:20;;;;;;;9.23;6.00;;;;;;;7.16;46.04;100360.96;1817985;77;21726;-71
2021/04/08 10:42:06;;;;;;;6.83;4.83;;;;;;;7.34;43.93;100367.09;1830211;76;26923;-71
2021/04/08 10:44:46;;;;;;;6.08;4.30;;;;;;;7.46;42.95;100383.78;1819574;78;21218;-74
2021/04/08 10:47:21;;;;;;;6.80;4.20;;;;;;;7.47;41.19;100374.26;1824165;78;21171;-71
2021/04/08 10:49:57;;;;;;;6.00;4.30;;;;;;;7.42;41.20;100367.52;1820523;77;21103;-71
2021/04/08 10:52:38;;;;;;;6.50;4.12;;;;;;;7.37;41.49;100363.47;1808957;78;21159;-69
2021/04/08 10:55:12;;;;;;;7.22;4.35;;;;;;;7.48;41.57;100361.77;1817242;77;21365;-70
2021/04/08 10:57:41;;;;;;;6.83;3.87;;;;;;;7.48;41.45;100367.89;1815547;78;21167;-71
2021/04/08 11:00:12;;;;;;;6.90;4.45;;;;;;;7.38;42.46;100373.03;1826633;76;21192;-71
2021/04/08 11:02:42;;;;;;;6.00;4.10;;;;;;;7.29;41.95;100375.27;1826567;76;21065;-71
2021/04/08 11:05:25;;;;;;;5.92;4.03;;;;;;;7.14;41.54;100360.41;1807714;77;21611;-71
2021/04/08 11:07:58;;;;;;;6.65;4.83;;;;;;;7.12;42.01;100369.13;1850892;77;21244;-71
2021/04/08 11:10:29;;;;;;;6.10;4.30;;;;;;;7.29;41.57;100368.63;1818257;77;28759;-70
2021/04/08 11:12:59;;;;;;;6.85;4.50;;;;;;;7.45;41.53;100363.05;1814612;77;21423;-71
2021/04/08 11:15:30;;;;;;;6.25;4.00;;;;;;;7.65;40.84;100353.80;1813545;77;21106;-71
2021/04/08 11:18:09;;;;;;;6.85;3.55;;;;;;;7.81;39.22;100356.17;1830596;78;21199;-71
2021/04/08 11:20:41;;;;;;;8.13;4.20;;;;;;;7.85;39.31;100370.05;1817330;77;22305;-73
2021/04/08 11:23:09;;;;;;;6.42;4.08;;;;;;;7.96;40.68;100373.66;1829489;78;21143;-74
2021/04/08 11:25:38;;;;;;;8.03;4.70;;;;;;;8.01;41.80;100387.05;1796227;78;21271;-74
2021/04/08 11:28:07;;;;;;;7.72;4.75;;;;;;;7.86;41.59;100372.98;1819321;78;21239;-72
2021/04/08 11:30:38;;;;;;;6.28;4.60;;;;;;;7.57;42.55;100378.11;1816505;78;21184;-72
2021/04/08 11:33:08;;;;;;;9.23;4.87;;;;;;;7.40;43.00;100379.42;1823579;76;21376;-73
2021/04/08 11:35:42;;;;;;;7.87;4.90;;;;;;;7.42;42.97;100368.05;1795943;78;22001;-73
2021/04/08 11:38:19;;;;;;;6.28;4.12;;;;;;;7.52;41.98;100363.69;1826081;76;21342;-74
2021/04/08 11:40:51;;;;;;;6.92;4.83;;;;;;;7.60;42.12;100374.47;1819071;78;21195;-72
2021/04/08 11:43:34;;;;;;;6.58;3.45;;;;;;;7.62;40.63;100375.02;1805054;76;21179;-71
2021/04/08 11:46:05;;;;;;;6.00;3.60;;;;;;;7.62;38.68;100366.24;1813633;78;21373;-74
2021/04/08 11:48:45;;;;;;;6.10;3.87;;;;;;;7.62;38.28;100377.67;1821893;76;21060;-74
2021/04/08 11:51:14;;;;;;;7.42;3.60;;;;;;;7.68;39.31;100373.25;1817967;77;21053;-74
2021/04/08 11:53:43;;;;;;;5.80;3.85;;;;;;;7.75;39.68;100377.88;1809825;76;21647;-73
2021/04/08 11:56:35;;;;;;;8.70;5.00;;;;;;;7.86;38.56;100374.31;1829695;78;21183;-73
2021/04/08 11:59:15;;;;;;;7.05;4.50;;;;;;;8.02;38.12;100370.03;1820778;77;21367;-73